KYNG/YNG METAR and TAF weather

Enter ICAO airport designator
Station Type Date Time Source
KYNG METAR 2019/10/23 12:51 UTC NOAA

KYNG 231251Z 22009KT 10SM FEW060 07/03 A2996 RMK AO2 SLP149 T00720028


Station Type Date Time Source
KYNG Decoded METAR 2019/10/23 12:51 UTC NOAA

YOUNGSTOWN-WARREN REG AIRPRT, OH, United States (KYNG) 41-15N 080-40W 360M
Oct 23, 2019 - 08:51 AM EDT / 2019.10.23 1251 UTC
Wind: from the SW (220 degrees) at 10 MPH (9 KT):0
Visibility: 10 mile(s):0
Sky conditions: mostly clear
Temperature: 45.0 F (7.2 C)
Dew Point: 37.0 F (2.8 C)
Relative Humidity: 73%
Pressure (altimeter): 29.96 in. Hg (1014 hPa)
ob: KYNG 231251Z 22009KT 10SM FEW060 07/03 A2996 RMK AO2 SLP149 T00720028
cycle: 13

Station Type Date Time Source
KYNG TAF 2019/10/23 12:33 UTC NOAA

TAF KYNG 231130Z 2312/2412 23008KT P6SM SKC
FM231400 24014G21KT P6SM SKC
FM232200 20010KT P6SM BKN090 BKN170 WS020/23040KT

Example: see airport list